createdAt,value
2023-08-17T00:00:21.150Z,61.79
2023-08-17T00:02:48.785Z,61.78
2023-08-17T00:05:16.482Z,61.80
2023-08-17T00:07:44.122Z,61.88
2023-08-17T00:10:11.802Z,61.92
2023-08-17T00:12:39.413Z,61.88
2023-08-17T00:15:08.200Z,61.60
2023-08-17T00:17:35.849Z,61.53
2023-08-17T00:20:06.387Z,61.59
2023-08-17T00:22:34.198Z,61.62
2023-08-17T00:25:01.915Z,61.44
2023-08-17T00:27:30.143Z,61.50
2023-08-17T00:29:58.217Z,61.60
2023-08-17T00:32:27.320Z,61.68
2023-08-17T00:34:54.980Z,61.91
2023-08-17T00:37:22.744Z,61.93
2023-08-17T00:39:50.406Z,62.20
2023-08-17T00:42:18.284Z,62.72
2023-08-17T00:44:45.947Z,63.27
2023-08-17T00:47:13.702Z,63.64
2023-08-17T00:49:42.190Z,64.02
2023-08-17T00:52:10.012Z,64.21
2023-08-17T00:54:37.575Z,64.46
2023-08-17T00:57:07.864Z,64.82
2023-08-17T00:59:37.237Z,64.87
2023-08-17T01:02:05.133Z,65.09
2023-08-17T01:04:33.148Z,65.05
2023-08-17T01:07:02.975Z,65.32
2023-08-17T01:09:30.680Z,65.53
2023-08-17T01:12:17.120Z,65.76
2023-08-17T01:14:54.375Z,65.87
2023-08-17T01:17:31.705Z,65.66
2023-08-17T01:19:59.569Z,65.43
2023-08-17T01:22:27.195Z,65.60
2023-08-17T01:25:00.799Z,65.65
2023-08-17T01:27:40.153Z,65.81
2023-08-17T01:30:08.975Z,66.03
2023-08-17T01:32:56.067Z,65.96
2023-08-17T01:35:40.302Z,65.95
2023-08-17T01:38:11.136Z,66.03
2023-08-17T01:40:38.802Z,65.99
2023-08-17T01:43:06.464Z,66.31
2023-08-17T01:45:34.040Z,66.39
2023-08-17T01:48:02.835Z,66.64
2023-08-17T01:50:32.026Z,67.08
2023-08-17T01:52:59.782Z,67.12
2023-08-17T01:55:28.471Z,67.42
2023-08-17T01:57:56.140Z,67.62
2023-08-17T02:00:23.828Z,67.76
2023-08-17T02:02:51.486Z,68.02
2023-08-17T02:05:19.124Z,67.90
2023-08-17T02:07:47.303Z,68.04
2023-08-17T02:10:15.689Z,67.92
2023-08-17T02:12:43.354Z,67.77
2023-08-17T02:15:11.322Z,67.66
2023-08-17T02:17:38.920Z,67.56
2023-08-17T02:20:07.688Z,67.51
2023-08-17T02:22:35.967Z,67.45
2023-08-17T02:25:03.598Z,67.17
2023-08-17T02:27:32.920Z,67.05
2023-08-17T02:30:00.689Z,66.97
2023-08-17T02:32:28.803Z,66.82
2023-08-17T02:34:56.934Z,66.95
2023-08-17T02:37:24.832Z,66.88
2023-08-17T02:39:52.819Z,66.93
2023-08-17T02:42:20.644Z,66.86
2023-08-17T02:44:48.803Z,66.86
2023-08-17T02:47:16.482Z,66.88
2023-08-17T02:49:44.250Z,66.89
2023-08-17T02:52:12.193Z,67.04
2023-08-17T02:54:39.781Z,67.05
2023-08-17T02:57:07.398Z,66.94
2023-08-17T02:59:34.963Z,67.07
2023-08-17T03:02:02.672Z,66.87
2023-08-17T03:04:30.268Z,66.73
2023-08-17T03:06:57.814Z,66.65
2023-08-17T03:09:25.463Z,66.53
2023-08-17T03:11:53.480Z,66.52
2023-08-17T03:14:21.726Z,66.36
2023-08-17T03:16:49.317Z,66.43
2023-08-17T03:19:17.036Z,66.53
2023-08-17T03:21:45.226Z,66.54
2023-08-17T03:24:12.882Z,66.54
2023-08-17T03:26:40.646Z,66.49
2023-08-17T03:29:11.217Z,66.55
2023-08-17T03:31:39.385Z,66.71
2023-08-17T03:34:08.572Z,66.58
2023-08-17T03:36:36.345Z,66.54
2023-08-17T03:39:04.341Z,66.50
2023-08-17T03:41:32.671Z,66.58
2023-08-17T03:44:00.233Z,66.39
2023-08-17T03:46:27.817Z,66.33
2023-08-17T03:48:55.463Z,66.28
2023-08-17T03:51:23.137Z,66.13
2023-08-17T03:53:50.888Z,66.10
2023-08-17T03:56:19.077Z,66.02
2023-08-17T03:58:46.744Z,65.79
2023-08-17T04:01:15.364Z,65.73
2023-08-17T04:03:43.295Z,65.41
2023-08-17T04:06:11.845Z,65.21
2023-08-17T04:08:39.658Z,65.08
2023-08-17T04:11:07.213Z,64.83
2023-08-17T04:13:34.870Z,64.62
2023-08-17T04:16:02.435Z,64.25
2023-08-17T04:18:30.109Z,64.02
2023-08-17T04:20:57.765Z,63.86
2023-08-17T04:23:26.449Z,63.38
2023-08-17T04:25:55.069Z,62.96
2023-08-17T04:28:23.159Z,62.51
2023-08-17T04:30:52.717Z,62.34
2023-08-17T04:33:20.484Z,61.85
2023-08-17T04:35:49.302Z,61.82
2023-08-17T04:38:17.042Z,61.50
2023-08-17T04:40:44.961Z,61.37
2023-08-17T04:43:12.684Z,61.18
2023-08-17T04:45:40.455Z,61.12
2023-08-17T04:48:08.610Z,60.65
2023-08-17T04:50:36.802Z,60.32
2023-08-17T04:53:05.265Z,60.04
2023-08-17T04:55:35.809Z,59.72
2023-08-17T04:58:03.575Z,59.28
2023-08-17T05:00:32.076Z,58.96
2023-08-17T05:03:00.090Z,58.66
2023-08-17T05:05:32.638Z,58.28
2023-08-17T05:08:00.751Z,57.77
2023-08-17T05:10:28.552Z,57.59
2023-08-17T05:12:56.778Z,57.77
2023-08-17T05:15:24.543Z,57.76
2023-08-17T05:17:52.289Z,57.76
2023-08-17T05:20:21.881Z,57.45
2023-08-17T05:22:49.953Z,57.36
2023-08-17T05:25:18.998Z,57.52
2023-08-17T05:27:46.815Z,57.64
2023-08-17T05:30:14.695Z,57.39
2023-08-17T05:32:46.659Z,57.32
2023-08-17T05:35:14.310Z,57.16
2023-08-17T05:37:42.267Z,56.98
2023-08-17T05:40:10.228Z,56.73
2023-08-17T05:42:38.124Z,56.47
2023-08-17T05:45:06.743Z,56.08
2023-08-17T05:47:34.498Z,55.80
2023-08-17T05:50:02.781Z,55.28
2023-08-17T05:52:30.414Z,54.62
2023-08-17T05:54:58.083Z,54.17
2023-08-17T05:57:26.164Z,53.87
2023-08-17T05:59:54.436Z,53.35
2023-08-17T06:02:22.061Z,52.61
2023-08-17T06:04:51.077Z,52.42
2023-08-17T06:07:18.761Z,52.00
2023-08-17T06:09:46.424Z,51.99
2023-08-17T06:12:14.083Z,51.55
2023-08-17T06:14:43.386Z,51.09
2023-08-17T06:17:11.153Z,50.72
2023-08-17T06:19:40.888Z,50.00
2023-08-17T06:22:08.631Z,49.81
2023-08-17T06:24:36.236Z,49.77
2023-08-17T06:27:03.975Z,49.36
2023-08-17T06:29:31.733Z,50.38
2023-08-17T06:31:59.391Z,50.22
2023-08-17T06:34:27.068Z,48.84
2023-08-17T06:37:02.718Z,48.25
2023-08-17T06:39:30.887Z,47.46
2023-08-17T06:41:58.500Z,46.73
2023-08-17T06:44:26.111Z,45.76
2023-08-17T06:46:53.716Z,45.63
2023-08-17T06:49:21.336Z,45.11
2023-08-17T06:51:49.269Z,44.45
2023-08-17T06:54:16.792Z,44.70
2023-08-17T06:56:44.432Z,44.65
2023-08-17T06:59:11.974Z,44.32
2023-08-17T07:01:39.740Z,43.95
2023-08-17T07:04:08.762Z,43.91
2023-08-17T07:06:36.255Z,43.95
2023-08-17T07:09:06.360Z,44.43
2023-08-17T07:11:34.172Z,44.09
2023-08-17T07:14:01.809Z,42.93
2023-08-17T07:16:29.445Z,42.91
2023-08-17T07:18:57.101Z,43.26
2023-08-17T07:21:24.764Z,42.74
2023-08-17T07:23:52.415Z,42.72
2023-08-17T07:26:20.316Z,42.52
2023-08-17T07:28:48.469Z,42.14
2023-08-17T07:31:17.550Z,41.39
2023-08-17T07:33:45.130Z,41.56
2023-08-17T07:36:12.757Z,40.98
2023-08-17T07:38:40.461Z,41.03
2023-08-17T07:41:08.125Z,40.29
2023-08-17T07:43:35.658Z,39.93
2023-08-17T07:46:03.343Z,40.02
2023-08-17T07:48:35.022Z,38.80
2023-08-17T07:51:03.251Z,38.71
2023-08-17T07:53:31.178Z,38.95
2023-08-17T07:55:58.828Z,38.95
2023-08-17T07:58:26.463Z,39.50
2023-08-17T08:00:54.098Z,39.13
2023-08-17T08:03:22.024Z,38.73
2023-08-17T08:05:49.624Z,38.55
2023-08-17T08:08:18.792Z,38.53
2023-08-17T08:10:46.367Z,37.19
2023-08-17T08:13:15.385Z,37.07
2023-08-17T08:15:43.128Z,36.53
2023-08-17T08:18:10.918Z,37.04
2023-08-17T08:20:39.352Z,37.58
2023-08-17T08:23:06.957Z,36.83
2023-08-17T08:25:34.506Z,37.12
2023-08-17T08:28:02.150Z,36.61
2023-08-17T08:30:29.877Z,36.18
2023-08-17T08:32:59.377Z,36.13
2023-08-17T08:35:27.010Z,35.41
2023-08-17T08:37:56.786Z,35.55
2023-08-17T08:40:31.279Z,35.74
2023-08-17T08:42:59.176Z,36.10
2023-08-17T08:45:26.996Z,35.90
2023-08-17T08:47:54.906Z,35.43
2023-08-17T08:50:25.716Z,35.71
2023-08-17T08:53:00.083Z,35.11
2023-08-17T08:55:31.716Z,34.87
2023-08-17T08:57:59.625Z,34.77
2023-08-17T09:00:27.795Z,34.18
2023-08-17T09:02:55.860Z,34.37
2023-08-17T09:05:23.642Z,34.74
2023-08-17T09:07:54.045Z,35.22
2023-08-17T09:10:21.931Z,35.01
2023-08-17T09:12:50.372Z,34.86
2023-08-17T09:15:18.358Z,34.70
2023-08-17T09:17:46.574Z,35.00
2023-08-17T09:20:39.062Z,35.38
2023-08-17T09:23:12.164Z,35.05
2023-08-17T09:25:41.538Z,34.35
2023-08-17T09:28:13.301Z,34.31
2023-08-17T09:30:57.047Z,34.25
2023-08-17T09:33:29.706Z,33.60
2023-08-17T09:35:59.927Z,33.14
2023-08-17T09:38:29.175Z,33.18
2023-08-17T09:40:58.154Z,33.04
2023-08-17T09:43:27.137Z,33.41
2023-08-17T09:45:54.767Z,33.97
2023-08-17T09:48:22.535Z,33.36
2023-08-17T09:50:50.144Z,33.32
2023-08-17T09:53:18.796Z,34.11
2023-08-17T09:55:46.751Z,34.65
2023-08-17T09:58:17.181Z,33.89
2023-08-17T10:00:52.748Z,34.34
2023-08-17T10:03:20.886Z,33.55
2023-08-17T10:05:57.479Z,33.62
2023-08-17T10:08:25.127Z,33.84
2023-08-17T10:10:56.420Z,34.13
2023-08-17T10:13:57.234Z,33.58
2023-08-17T10:16:31.430Z,33.28
2023-08-17T10:19:11.628Z,32.70
2023-08-17T10:21:45.215Z,33.13
2023-08-17T10:24:12.733Z,34.37
2023-08-17T10:26:43.039Z,34.64
2023-08-17T10:29:15.395Z,33.77
2023-08-17T10:31:46.834Z,34.19
2023-08-17T10:34:14.898Z,34.05
2023-08-17T10:36:42.459Z,32.91
2023-08-17T10:41:49.183Z,32.92
2023-08-17T10:44:19.577Z,32.52
2023-08-17T10:46:48.142Z,33.13
2023-08-17T10:49:28.077Z,33.75
2023-08-17T10:52:05.724Z,33.35
2023-08-17T10:54:44.699Z,32.61
2023-08-17T10:57:31.523Z,32.55
2023-08-17T11:00:21.723Z,32.24
2023-08-17T11:03:01.432Z,32.35
2023-08-17T11:05:41.183Z,32.26
2023-08-17T11:08:15.678Z,32.35
2023-08-17T11:10:48.266Z,32.96
2023-08-17T11:13:16.254Z,33.06
2023-08-17T11:15:44.993Z,33.01
2023-08-17T11:18:13.116Z,32.37
2023-08-17T11:20:42.121Z,32.08
2023-08-17T11:23:13.329Z,32.13
2023-08-17T11:25:40.911Z,32.40
2023-08-17T11:28:12.468Z,32.59
2023-08-17T11:30:40.437Z,31.87
2023-08-17T11:33:08.659Z,31.85
2023-08-17T11:35:37.419Z,31.95
2023-08-17T11:38:09.103Z,31.90
2023-08-17T11:40:37.051Z,32.34
2023-08-17T11:43:04.976Z,31.96
2023-08-17T11:45:33.231Z,31.63
2023-08-17T11:48:00.885Z,31.73
2023-08-17T11:50:29.871Z,32.23
2023-08-17T11:53:01.215Z,32.83
2023-08-17T11:55:29.000Z,32.86
2023-08-17T11:57:56.599Z,32.92
2023-08-17T12:00:26.095Z,32.57
2023-08-17T12:02:54.641Z,32.08
2023-08-17T12:05:26.261Z,32.09
2023-08-17T12:07:54.757Z,31.22
2023-08-17T12:10:23.849Z,31.25
2023-08-17T12:12:51.699Z,31.47
2023-08-17T12:15:19.405Z,31.54
2023-08-17T12:17:47.822Z,32.05
2023-08-17T12:20:19.290Z,32.56
2023-08-17T12:22:47.920Z,33.20
2023-08-17T12:25:15.898Z,32.61
2023-08-17T12:27:43.558Z,31.62
2023-08-17T12:30:28.135Z,30.77
2023-08-17T12:32:56.866Z,31.55
2023-08-17T12:35:27.161Z,31.80
2023-08-17T12:37:55.332Z,31.92
2023-08-17T12:40:23.514Z,31.96
2023-08-17T12:42:51.177Z,32.34
2023-08-17T12:45:18.873Z,31.93
2023-08-17T12:47:46.463Z,31.62
2023-08-17T12:50:14.165Z,31.85
2023-08-17T12:52:47.236Z,31.77
2023-08-17T12:55:15.380Z,31.17
2023-08-17T12:57:43.014Z,31.07
2023-08-17T13:00:13.695Z,31.15
2023-08-17T13:02:41.426Z,31.67
2023-08-17T13:05:09.372Z,31.43
2023-08-17T13:07:38.613Z,31.21
2023-08-17T13:10:06.834Z,31.11
2023-08-17T13:12:34.393Z,30.50
2023-08-17T13:15:01.995Z,30.59
2023-08-17T13:17:29.542Z,30.63
2023-08-17T13:19:57.164Z,30.47
2023-08-17T13:22:24.896Z,30.83
2023-08-17T13:24:52.757Z,31.08
2023-08-17T13:27:20.325Z,31.51
2023-08-17T13:29:47.944Z,31.69
2023-08-17T13:32:16.054Z,31.69
2023-08-17T13:34:43.671Z,31.06
2023-08-17T13:37:11.258Z,31.06
2023-08-17T13:39:38.787Z,30.71
2023-08-17T13:42:06.747Z,29.14
2023-08-17T13:44:34.349Z,29.40
2023-08-17T13:47:01.889Z,29.53
2023-08-17T13:49:29.448Z,29.49
2023-08-17T13:51:59.818Z,30.05
2023-08-17T13:54:27.404Z,30.44
2023-08-17T13:56:54.992Z,30.68
2023-08-17T13:59:22.504Z,30.37
2023-08-17T14:01:50.204Z,30.00
2023-08-17T14:04:21.896Z,29.87
2023-08-17T14:06:49.557Z,30.10
2023-08-17T14:09:17.071Z,30.15
2023-08-17T14:11:44.675Z,30.49
2023-08-17T14:14:12.221Z,30.53
2023-08-17T14:16:40.405Z,30.71
2023-08-17T14:19:08.063Z,30.45
2023-08-17T14:21:35.653Z,30.28
2023-08-17T14:24:03.536Z,29.86
2023-08-17T14:26:33.017Z,30.03
2023-08-17T14:29:00.902Z,29.99
2023-08-17T14:31:28.507Z,29.34
2023-08-17T14:33:56.196Z,28.72
2023-08-17T14:36:23.716Z,28.40
2023-08-17T14:38:51.201Z,28.66
2023-08-17T14:41:18.760Z,28.19
2023-08-17T14:43:47.359Z,27.03
2023-08-17T14:46:15.880Z,26.35
2023-08-17T14:48:43.903Z,25.91
2023-08-17T14:51:11.400Z,24.62
2023-08-17T14:53:39.702Z,24.33
2023-08-17T14:56:07.896Z,24.38
2023-08-17T14:58:35.558Z,24.68
2023-08-17T15:01:04.486Z,24.38
2023-08-17T15:03:32.154Z,24.15
2023-08-17T15:05:59.878Z,23.64
2023-08-17T15:08:27.454Z,23.96
2023-08-17T15:10:55.196Z,23.64
2023-08-17T15:13:24.022Z,23.60
2023-08-17T15:15:51.638Z,23.25
2023-08-17T15:18:19.274Z,23.10
2023-08-17T15:20:46.888Z,23.31
2023-08-17T15:23:18.677Z,23.51
2023-08-17T15:25:46.724Z,23.75
2023-08-17T15:28:14.590Z,24.07
2023-08-17T15:30:42.152Z,23.83
2023-08-17T15:33:09.779Z,23.37
2023-08-17T15:35:40.580Z,23.25
2023-08-17T15:38:08.589Z,23.39
2023-08-17T15:40:36.826Z,23.30
2023-08-17T15:43:05.145Z,23.31
2023-08-17T15:45:33.058Z,23.69
2023-08-17T15:48:00.713Z,23.63
2023-08-17T15:50:30.167Z,23.34
2023-08-17T15:52:57.748Z,23.07
2023-08-17T15:55:26.507Z,22.43
2023-08-17T15:57:54.061Z,22.60
2023-08-17T16:00:21.669Z,22.88
2023-08-17T16:02:49.252Z,22.83
2023-08-17T16:05:17.987Z,23.04
2023-08-17T16:07:45.946Z,23.24
2023-08-17T16:10:13.569Z,23.92
2023-08-17T16:12:42.997Z,24.21
2023-08-17T16:15:11.562Z,24.17
2023-08-17T16:17:39.242Z,24.37
2023-08-17T16:20:08.935Z,23.94
2023-08-17T16:22:36.632Z,24.05
2023-08-17T16:25:05.070Z,24.40
2023-08-17T16:27:32.793Z,24.85
2023-08-17T16:30:00.380Z,25.04
2023-08-17T16:32:30.313Z,25.41
2023-08-17T16:34:59.064Z,25.77
2023-08-17T16:37:26.707Z,25.96
2023-08-17T16:39:54.452Z,26.21
2023-08-17T16:42:29.017Z,26.46
2023-08-17T16:44:59.125Z,26.79
2023-08-17T16:47:28.324Z,27.04
2023-08-17T16:50:00.471Z,27.35
2023-08-17T16:52:28.559Z,27.73
2023-08-17T16:54:56.147Z,28.01
2023-08-17T16:57:25.232Z,28.56
2023-08-17T16:59:52.868Z,29.46
2023-08-17T17:02:20.461Z,30.26
2023-08-17T17:04:48.034Z,31.06
2023-08-17T17:07:16.489Z,32.05
2023-08-17T17:09:45.723Z,32.59
2023-08-17T17:12:13.379Z,33.74
2023-08-17T17:14:41.066Z,34.45
2023-08-17T17:17:11.244Z,34.99
2023-08-17T17:19:38.791Z,35.59
2023-08-17T17:22:06.550Z,36.34
2023-08-17T17:24:34.432Z,36.95
2023-08-17T17:27:02.086Z,37.47
2023-08-17T17:29:29.881Z,37.89
2023-08-17T17:31:57.510Z,38.39
2023-08-17T17:34:25.895Z,38.67
2023-08-17T17:36:53.428Z,39.32
2023-08-17T17:39:21.423Z,39.61
2023-08-17T17:41:49.817Z,39.97
2023-08-17T17:44:17.364Z,40.41
2023-08-17T17:46:45.224Z,40.65
2023-08-17T17:49:13.960Z,40.96
2023-08-17T17:51:42.881Z,41.31
2023-08-17T17:54:10.480Z,41.53
2023-08-17T17:56:43.743Z,41.72
2023-08-17T17:59:14.117Z,42.06
2023-08-17T18:01:41.866Z,42.22
2023-08-17T18:04:10.886Z,42.39
2023-08-17T18:06:38.842Z,42.67
2023-08-17T18:09:06.682Z,43.03
2023-08-17T18:11:34.306Z,43.31
2023-08-17T18:14:02.057Z,43.71
2023-08-17T18:16:31.461Z,44.12
2023-08-17T18:19:00.069Z,44.60
2023-08-17T18:21:31.516Z,44.97
2023-08-17T18:23:59.419Z,45.12
2023-08-17T18:26:28.285Z,45.43
2023-08-17T18:28:56.821Z,45.66
2023-08-17T18:31:24.664Z,45.89
2023-08-17T18:33:52.389Z,46.28
2023-08-17T18:36:20.074Z,46.58
2023-08-17T18:38:47.788Z,46.97
2023-08-17T18:41:15.454Z,47.43
2023-08-17T18:43:43.084Z,47.48
2023-08-17T18:46:11.298Z,47.72
2023-08-17T18:48:39.588Z,48.04
2023-08-17T18:51:07.288Z,48.15
2023-08-17T18:53:34.905Z,48.39
2023-08-17T18:56:02.793Z,48.47
2023-08-17T18:58:30.452Z,48.66
2023-08-17T19:00:58.100Z,48.87
2023-08-17T19:03:27.788Z,49.07
2023-08-17T19:05:55.624Z,49.21
2023-08-17T19:08:24.780Z,49.54
2023-08-17T19:10:53.951Z,49.80
2023-08-17T19:13:23.687Z,50.03
2023-08-17T19:15:51.313Z,50.15
2023-08-17T19:18:19.026Z,50.14
2023-08-17T19:20:46.598Z,50.28
2023-08-17T19:23:14.173Z,50.45
2023-08-17T19:25:42.134Z,50.57
2023-08-17T19:28:09.736Z,50.64
2023-08-17T19:30:38.603Z,50.71
2023-08-17T19:33:06.601Z,50.92
2023-08-17T19:35:34.307Z,50.80
2023-08-17T19:38:02.019Z,50.90
2023-08-17T19:40:31.569Z,51.13
2023-08-17T19:43:00.271Z,51.09
2023-08-17T19:45:28.317Z,51.19
2023-08-17T19:47:57.517Z,51.22
2023-08-17T19:50:25.524Z,51.35
2023-08-17T19:52:54.703Z,51.58
2023-08-17T19:55:23.526Z,51.73
2023-08-17T19:57:51.061Z,51.84
2023-08-17T20:00:20.179Z,51.81
2023-08-17T20:02:49.761Z,51.97
2023-08-17T20:05:19.217Z,52.08
2023-08-17T20:07:46.846Z,52.10
2023-08-17T20:10:15.975Z,52.16
2023-08-17T20:12:43.551Z,52.32
2023-08-17T20:15:11.492Z,52.57
2023-08-17T20:17:39.242Z,52.64
2023-08-17T20:20:11.218Z,52.79
2023-08-17T20:22:39.080Z,52.87
2023-08-17T20:25:07.378Z,53.12
2023-08-17T20:27:34.968Z,53.35
2023-08-17T20:30:03.634Z,53.54
2023-08-17T20:32:31.633Z,53.76
2023-08-17T20:34:59.258Z,53.95
2023-08-17T20:37:27.094Z,53.93
2023-08-17T20:39:54.945Z,54.09
2023-08-17T20:42:22.492Z,54.24
2023-08-17T20:44:50.004Z,54.47
2023-08-17T20:47:17.651Z,54.36
2023-08-17T20:49:45.146Z,54.71
2023-08-17T20:52:12.697Z,54.90
2023-08-17T20:54:40.302Z,54.93
2023-08-17T20:57:08.769Z,55.18
2023-08-17T20:59:37.248Z,55.30
2023-08-17T21:02:05.059Z,55.44
2023-08-17T21:04:33.032Z,55.52
2023-08-17T21:07:00.699Z,55.68
2023-08-17T21:09:29.081Z,55.83
2023-08-17T21:11:59.379Z,55.90
2023-08-17T21:14:27.603Z,56.07
2023-08-17T21:16:55.290Z,56.20
2023-08-17T21:19:22.980Z,56.42
2023-08-17T21:21:50.600Z,56.70
2023-08-17T21:24:18.136Z,56.78
2023-08-17T21:26:45.734Z,56.96
2023-08-17T21:29:13.322Z,56.94
2023-08-17T21:31:41.762Z,57.39
2023-08-17T21:34:09.317Z,57.43
2023-08-17T21:36:36.923Z,57.41
2023-08-17T21:39:04.772Z,57.62
2023-08-17T21:41:32.444Z,57.58
2023-08-17T21:44:00.013Z,57.75
2023-08-17T21:46:27.784Z,57.88
2023-08-17T21:48:55.299Z,57.99
2023-08-17T21:51:22.790Z,57.91
2023-08-17T21:53:50.418Z,57.92
2023-08-17T21:56:17.918Z,58.06
2023-08-17T21:58:47.616Z,58.11
2023-08-17T22:01:15.323Z,58.12
2023-08-17T22:03:42.956Z,58.11
2023-08-17T22:06:11.542Z,58.18
2023-08-17T22:08:39.108Z,58.21
2023-08-17T22:11:06.677Z,58.38
2023-08-17T22:13:34.243Z,58.36
2023-08-17T22:16:01.939Z,58.43
2023-08-17T22:18:29.530Z,58.61
2023-08-17T22:20:57.053Z,58.72
2023-08-17T22:23:24.720Z,58.80
2023-08-17T22:25:52.483Z,58.78
2023-08-17T22:28:20.101Z,58.92
2023-08-17T22:30:47.736Z,59.07
2023-08-17T22:33:15.360Z,58.98
2023-08-17T22:35:43.862Z,58.58
2023-08-17T22:38:11.489Z,58.19
2023-08-17T22:40:39.050Z,58.26
2023-08-17T22:43:07.552Z,58.24
2023-08-17T22:45:38.491Z,58.15
2023-08-17T22:48:06.352Z,58.16
2023-08-17T22:50:34.244Z,58.13
2023-08-17T22:53:02.261Z,58.34
2023-08-17T22:55:29.856Z,58.33
2023-08-17T22:57:57.401Z,58.59
2023-08-17T23:00:25.393Z,58.72
2023-08-17T23:02:52.924Z,58.77
2023-08-17T23:05:20.517Z,58.79
2023-08-17T23:07:48.131Z,58.61
2023-08-17T23:10:15.700Z,58.43
2023-08-17T23:12:43.364Z,58.37
2023-08-17T23:30:46.695Z,58.84
2023-08-17T23:33:13.812Z,59.22
2023-08-17T23:35:40.673Z,59.34
2023-08-17T23:38:08.114Z,59.73
2023-08-17T23:40:34.869Z,59.88
2023-08-17T23:43:01.984Z,60.32
2023-08-17T23:45:30.831Z,60.55
2023-08-17T23:47:58.748Z,60.22
2023-08-17T23:50:25.332Z,60.38
2023-08-17T23:52:52.445Z,60.77
2023-08-17T23:55:19.297Z,61.35
2023-08-17T23:57:46.006Z,62.00
